Airport ID:KSMD
Update Time (UTC):17/09/2021 22:57
Wind Speed (Knots):4
Wind Direction (Magnetic):220
Temperature (°C):29.3
Dew Point (°C):17.2
Humidity (%):48.4
Altimeter (inHg):30.07
Density Altitude (Feet):02700
Visibility (Miles):10
Clouds (Hundreds of feet):CLR
Present Weather:
METAR:METAR KSMD 172255Z AUTO 22003KT 10SM CLR 29/17 A3007 RMK A01

The data displayed is for advisory purposes only and is not to be used for flight planning or operations.